Time;durP1;ratioP1;P1;durP2;ratioP2;P2;SDS_P1;SDS_P2;PMS_P1;PMS_P2;Temp;Humidity;BMP_temperature;BMP_pressure;BME280_temperature;BME280_humidity;BME280_pressure;Samples;Min_cycle;Max_cycle;Signal;HPM_P1;HPM_P2
2022/07/27 00:00:57;;;;;;;10.95;4.57;;;12.60;99.90;;;;;;5056735;28;20045;-68
2022/07/27 00:03:23;;;;;;;11.70;4.97;;;12.50;99.90;;;;;;5056602;28;20105;-68
2022/07/27 00:05:49;;;;;;;14.70;4.78;;;12.50;99.90;;;;;;5062044;28;20498;-68
2022/07/27 00:08:15;;;;;;;12.43;4.80;;;12.60;99.90;;;;;;5057188;28;20081;-68
2022/07/27 00:10:41;;;;;;;14.52;4.90;;;12.60;99.90;;;;;;5062861;28;20036;-68
2022/07/27 00:13:06;;;;;;;11.60;5.10;;;12.60;99.90;;;;;;5063807;28;20033;-68
2022/07/27 00:15:33;;;;;;;11.85;4.97;;;12.50;99.90;;;;;;5056285;28;20131;-68
2022/07/27 00:17:59;;;;;;;14.93;5.18;;;12.60;99.90;;;;;;5061350;28;20106;-68
2022/07/27 00:20:27;;;;;;;14.52;5.30;;;12.40;99.90;;;;;;5059944;28;20048;-68
2022/07/27 00:22:53;;;;;;;12.65;5.18;;;12.40;99.90;;;;;;5062578;28;20039;-68
2022/07/27 00:25:19;;;;;;;17.73;5.30;;;12.40;99.90;;;;;;5053464;28;20101;-69
2022/07/27 00:27:45;;;;;;;11.85;4.35;;;12.50;99.90;;;;;;5062260;28;20040;-68
2022/07/27 00:30:10;;;;;;;14.25;4.93;;;12.40;99.90;;;;;;5062054;28;20040;-68
2022/07/27 00:32:36;;;;;;;11.02;4.47;;;12.40;99.90;;;;;;5051168;28;20055;-68
2022/07/27 00:35:02;;;;;;;16.33;5.38;;;12.40;99.90;;;;;;5059737;28;20040;-68
2022/07/27 00:37:27;;;;;;;17.50;5.55;;;12.40;99.90;;;;;;5057099;28;20399;-69
2022/07/27 00:39:55;;;;;;;12.07;4.35;;;12.40;99.90;;;;;;5061647;28;20049;-68
2022/07/27 00:42:26;;;;;;;8.02;3.40;;;12.30;99.90;;;;;;5062532;28;20048;-68
2022/07/27 00:44:53;;;;;;;7.00;3.55;;;12.30;99.90;;;;;;5071854;28;20198;-68
2022/07/27 00:47:18;;;;;;;8.90;3.67;;;12.20;99.90;;;;;;5061150;28;20148;-68
2022/07/27 00:49:44;;;;;;;9.85;2.67;;;12.20;99.90;;;;;;5076569;28;20115;-68
2022/07/27 00:52:10;;;;;;;16.35;5.60;;;12.30;99.90;;;;;;5062730;28;20052;-68
2022/07/27 00:54:35;;;;;;;14.23;6.00;;;12.30;99.90;;;;;;5059290;28;20047;-68
2022/07/27 00:57:01;;;;;;;17.30;5.95;;;12.20;99.90;;;;;;5060234;28;20068;-68
2022/07/27 00:59:27;;;;;;;16.35;6.10;;;12.40;99.90;;;;;;5065660;28;20064;-68
2022/07/27 01:01:53;;;;;;;14.38;5.97;;;12.30;99.90;;;;;;5057174;28;20052;-68
2022/07/27 01:04:18;;;;;;;14.43;5.80;;;12.40;99.90;;;;;;5060179;28;20045;-68
2022/07/27 01:06:44;;;;;;;12.82;5.15;;;12.40;99.90;;;;;;5056193;28;20435;-68
2022/07/27 01:11:54;;;;;;;15.25;5.88;;;12.50;99.90;;;;;;5070728;28;20455;-69
2022/07/27 01:14:20;;;;;;;14.90;5.72;;;12.50;99.90;;;;;;5064215;28;20123;-69
2022/07/27 01:16:46;;;;;;;16.13;5.50;;;12.50;99.90;;;;;;5060566;28;20051;-69
2022/07/27 01:19:13;;;;;;;16.63;5.90;;;12.50;99.90;;;;;;5056363;28;20484;-69
2022/07/27 01:21:39;;;;;;;10.98;5.57;;;12.60;99.90;;;;;;5060855;28;20337;-68
2022/07/27 01:24:06;;;;;;;15.95;5.32;;;12.60;99.90;;;;;;5077210;28;20086;-69
2022/07/27 01:26:33;;;;;;;17.75;5.43;;;12.50;99.90;;;;;;5057812;28;20039;-69
2022/07/27 01:29:00;;;;;;;12.60;5.10;;;12.70;99.90;;;;;;5059151;28;20048;-68
2022/07/27 01:31:29;;;;;;;11.50;4.22;;;12.50;99.90;;;;;;5061431;28;20505;-68
2022/07/27 01:33:55;;;;;;;13.13;4.55;;;12.50;99.90;;;;;;5063147;28;20044;-68
2022/07/27 01:36:21;;;;;;;13.90;4.38;;;12.60;99.90;;;;;;5061069;28;20032;-68
2022/07/27 01:38:46;;;;;;;14.30;5.03;;;12.50;99.90;;;;;;5058236;28;20047;-68
2022/07/27 01:41:12;;;;;;;17.73;5.03;;;12.50;99.90;;;;;;5056554;28;20797;-68
2022/07/27 01:43:38;;;;;;;18.10;5.13;;;12.50;99.90;;;;;;5053396;28;20467;-68
2022/07/27 01:46:04;;;;;;;11.40;5.25;;;12.50;99.90;;;;;;5054480;28;20036;-68
2022/07/27 01:48:29;;;;;;;13.90;4.60;;;12.40;99.90;;;;;;5053818;28;20461;-69
2022/07/27 01:50:55;;;;;;;16.48;5.07;;;12.50;99.90;;;;;;5059516;28;20033;-68
2022/07/27 01:53:22;;;;;;;11.30;4.90;;;12.30;99.90;;;;;;5055261;28;20387;-68
2022/07/27 01:55:48;;;;;;;14.75;4.72;;;12.30;99.90;;;;;;5057941;28;20040;-68
2022/07/27 01:58:14;;;;;;;12.07;4.13;;;12.30;99.90;;;;;;5059901;28;20048;-68
2022/07/27 02:00:40;;;;;;;14.00;4.63;;;12.30;99.90;;;;;;5061128;28;20033;-68
2022/07/27 02:03:08;;;;;;;18.65;4.70;;;12.20;99.90;;;;;;5056342;28;20032;-68
2022/07/27 02:05:34;;;;;;;10.57;4.32;;;12.10;99.90;;;;;;5071852;28;20067;-68
2022/07/27 02:08:00;;;;;;;13.27;4.38;;;12.20;99.90;;;;;;5061521;28;20033;-69
2022/07/27 02:10:25;;;;;;;12.75;4.32;;;12.20;99.90;;;;;;5079580;28;20116;-69
2022/07/27 02:12:51;;;;;;;10.15;4.40;;;12.10;99.90;;;;;;5056301;28;20064;-69
2022/07/27 02:15:20;;;;;;;11.75;4.45;;;12.20;99.90;;;;;;5057501;28;20505;-69
2022/07/27 02:17:47;;;;;;;17.65;4.50;;;12.10;99.90;;;;;;5061482;28;20487;-68
2022/07/27 02:20:16;;;;;;;14.63;4.80;;;12.20;99.90;;;;;;5053257;28;20372;-69
2022/07/27 02:22:43;;;;;;;12.82;4.63;;;12.10;99.90;;;;;;5059324;28;20133;-68
2022/07/27 02:25:09;;;;;;;16.38;4.57;;;12.20;99.90;;;;;;5075327;28;20052;-68
2022/07/27 02:27:35;;;;;;;15.50;5.30;;;12.10;99.90;;;;;;5057155;28;20036;-69
2022/07/27 02:30:01;;;;;;;19.30;4.80;;;12.10;99.90;;;;;;5061911;28;20376;-68
2022/07/27 02:32:27;;;;;;;13.95;4.95;;;12.10;99.90;;;;;;5062647;28;20036;-68
2022/07/27 02:34:53;;;;;;;8.23;4.45;;;12.10;99.90;;;;;;5064348;28;20043;-68
2022/07/27 02:37:18;;;;;;;11.65;4.60;;;12.10;99.90;;;;;;5056864;28;20040;-68
2022/07/27 02:39:44;;;;;;;11.38;4.38;;;12.00;99.90;;;;;;5054294;28;20434;-68
2022/07/27 02:42:09;;;;;;;14.15;4.63;;;11.90;99.90;;;;;;5068047;28;20181;-68
2022/07/27 02:44:35;;;;;;;17.30;4.78;;;11.90;99.90;;;;;;5056044;28;20487;-68
2022/07/27 02:47:01;;;;;;;13.60;4.57;;;11.90;99.90;;;;;;5060235;28;20040;-68
2022/07/27 02:49:26;;;;;;;15.68;5.53;;;11.80;99.90;;;;;;5057786;28;20041;-68
2022/07/27 02:51:53;;;;;;;13.27;5.45;;;11.80;99.90;;;;;;5062727;28;20123;-68
2022/07/27 02:54:20;;;;;;;16.65;5.50;;;11.70;99.90;;;;;;5056925;28;20407;-68
2022/07/27 02:56:49;;;;;;;13.85;5.60;;;11.70;99.90;;;;;;5059743;28;20143;-68
2022/07/27 02:59:17;;;;;;;12.52;5.20;;;11.80;99.90;;;;;;5062857;28;20040;-68
2022/07/27 03:01:43;;;;;;;18.50;5.80;;;11.70;99.90;;;;;;5061632;28;20090;-68
2022/07/27 03:04:09;;;;;;;17.08;6.22;;;11.70;99.90;;;;;;5057733;28;20333;-68
2022/07/27 03:06:35;;;;;;;16.42;5.60;;;11.70;99.90;;;;;;5058540;28;20033;-68
2022/07/27 03:09:02;;;;;;;16.00;5.65;;;11.60;99.90;;;;;;5059299;28;20048;-68
2022/07/27 03:11:27;;;;;;;14.60;6.00;;;11.60;99.90;;;;;;5042749;28;20033;-68
2022/07/27 03:13:53;;;;;;;15.80;6.22;;;11.70;99.90;;;;;;5056502;28;20759;-68
2022/07/27 03:16:18;;;;;;;17.25;5.93;;;11.70;99.90;;;;;;5073331;28;20125;-68
2022/07/27 03:18:44;;;;;;;20.15;6.07;;;11.60;99.90;;;;;;5061913;28;20040;-68
2022/07/27 03:21:09;;;;;;;16.20;5.30;;;11.60;99.90;;;;;;5059146;28;20109;-68
2022/07/27 03:23:35;;;;;;;16.38;5.30;;;11.50;99.90;;;;;;5055393;28;20044;-68
2022/07/27 03:26:01;;;;;;;13.63;5.03;;;11.60;99.90;;;;;;5059825;28;20045;-68
2022/07/27 03:28:26;;;;;;;15.23;5.03;;;11.50;99.90;;;;;;5053971;28;20132;-68
2022/07/27 03:30:52;;;;;;;18.30;4.90;;;11.50;99.90;;;;;;5062130;28;20043;-68
2022/07/27 03:33:17;;;;;;;14.48;4.85;;;11.50;99.90;;;;;;5057562;28;20033;-68
2022/07/27 03:35:43;;;;;;;13.63;4.68;;;11.40;99.90;;;;;;5060197;28;20549;-68
2022/07/27 03:38:09;;;;;;;13.07;5.05;;;11.50;99.90;;;;;;5059543;28;20045;-68
2022/07/27 03:40:35;;;;;;;12.45;4.75;;;11.50;99.90;;;;;;5038455;28;20037;-68
2022/07/27 03:43:00;;;;;;;16.77;5.50;;;11.40;99.90;;;;;;5061416;28;20090;-68
2022/07/27 03:45:26;;;;;;;20.20;5.45;;;11.40;99.90;;;;;;5056590;28;20037;-68
2022/07/27 03:47:52;;;;;;;15.88;5.25;;;11.30;99.90;;;;;;5059559;28;20124;-68
2022/07/27 03:50:18;;;;;;;18.05;5.20;;;11.20;99.90;;;;;;5058283;28;20120;-68
2022/07/27 03:52:44;;;;;;;10.80;4.80;;;11.30;99.90;;;;;;5060680;28;20443;-68
2022/07/27 03:55:10;;;;;;;14.80;4.97;;;11.30;99.90;;;;;;5058844;28;20055;-68
2022/07/27 03:57:35;;;;;;;16.52;5.13;;;11.20;99.90;;;;;;5058629;28;20037;-68
2022/07/27 04:00:01;;;;;;;16.25;4.68;;;11.30;99.90;;;;;;5055814;28;21094;-68
2022/07/27 04:02:27;;;;;;;17.08;4.85;;;11.20;99.90;;;;;;5065437;28;20040;-68
2022/07/27 04:04:52;;;;;;;12.85;5.30;;;11.20;99.90;;;;;;5083207;28;20119;-68
2022/07/27 04:07:18;;;;;;;14.77;5.60;;;11.30;99.90;;;;;;5068106;28;20431;-68
2022/07/27 04:09:43;;;;;;;18.35;5.47;;;11.30;99.90;;;;;;5071967;28;20116;-68
2022/07/27 04:12:09;;;;;;;13.20;5.50;;;11.30;99.90;;;;;;5070047;28;20538;-68
2022/07/27 04:14:35;;;;;;;19.90;5.60;;;11.20;99.90;;;;;;5067899;28;20063;-68
2022/07/27 04:17:00;;;;;;;14.65;5.20;;;11.30;99.90;;;;;;5071030;28;20036;-68
2022/07/27 04:19:26;;;;;;;15.18;5.95;;;11.30;99.90;;;;;;5071578;28;20065;-68
2022/07/27 04:21:51;;;;;;;15.25;5.15;;;11.30;99.90;;;;;;5073568;28;20039;-68
2022/07/27 04:24:17;;;;;;;15.23;5.53;;;11.30;99.90;;;;;;5070490;28;20482;-69
2022/07/27 04:26:42;;;;;;;15.18;5.60;;;11.30;99.90;;;;;;5069785;28;20040;-69
2022/07/27 04:29:08;;;;;;;15.90;5.00;;;11.30;99.90;;;;;;5064785;28;20426;-69
2022/07/27 04:31:33;;;;;;;18.83;5.15;;;11.20;99.90;;;;;;5072164;28;20044;-69
2022/07/27 04:33:59;;;;;;;12.38;4.90;;;11.20;99.90;;;;;;5069275;28;20040;-69
2022/07/27 04:36:25;;;;;;;17.55;5.25;;;11.30;99.90;;;;;;5063977;28;20391;-69
2022/07/27 04:38:50;;;;;;;16.60;5.13;;;11.20;99.90;;;;;;5068571;28;20040;-69
2022/07/27 04:41:16;;;;;;;12.85;5.20;;;11.40;99.90;;;;;;5065901;28;20041;-69
2022/07/27 04:43:41;;;;;;;11.43;4.10;;;11.30;99.90;;;;;;5071447;28;20040;-69
2022/07/27 04:46:07;;;;;;;5.38;2.63;;;11.50;99.90;;;;;;5071056;28;20063;-69
2022/07/27 04:48:34;;;;;;;2.90;1.40;;;11.50;99.90;;;;;;5063719;28;20055;-69
2022/07/27 04:51:00;;;;;;;7.50;2.70;;;11.50;99.90;;;;;;5070452;28;20048;-69
2022/07/27 04:53:26;;;;;;;6.97;2.45;;;11.40;99.90;;;;;;5070841;28;20127;-69
2022/07/27 04:55:52;;;;;;;10.77;4.13;;;11.50;99.90;;;;;;5069869;28;20116;-69
2022/07/27 04:58:18;;;;;;;11.27;3.78;;;11.40;99.90;;;;;;5069644;28;20068;-69
2022/07/27 05:00:43;;;;;;;12.00;3.70;;;11.30;99.90;;;;;;5068991;28;20040;-69
2022/07/27 05:03:09;;;;;;;14.30;4.65;;;11.50;99.90;;;;;;5070878;28;20048;-68
2022/07/27 05:05:35;;;;;;;16.58;5.93;;;11.50;99.90;;;;;;5059018;28;20596;-68
2022/07/27 05:08:01;;;;;;;18.13;5.78;;;11.50;99.90;;;;;;5068893;28;20068;-68
2022/07/27 05:10:27;;;;;;;15.63;5.50;;;11.60;99.90;;;;;;5059529;28;20091;-69
2022/07/27 05:12:53;;;;;;;16.60;5.60;;;11.70;99.90;;;;;;5067411;28;20467;-69
2022/07/27 05:15:18;;;;;;;14.68;5.00;;;11.70;99.90;;;;;;5060378;28;20047;-69
2022/07/27 05:17:44;;;;;;;16.88;4.80;;;11.80;99.90;;;;;;5068001;28;20048;-68
2022/07/27 05:20:10;;;;;;;20.77;5.60;;;11.90;99.90;;;;;;5067776;28;20040;-69
2022/07/27 05:22:36;;;;;;;15.15;4.70;;;12.00;99.90;;;;;;5067638;28;20482;-69
2022/07/27 05:25:02;;;;;;;18.27;4.50;;;12.20;99.90;;;;;;5070522;28;20052;-69
2022/07/27 05:27:28;;;;;;;15.70;4.55;;;12.10;99.90;;;;;;5079622;28;20040;-69
2022/07/27 05:29:53;;;;;;;19.75;5.13;;;12.20;99.90;;;;;;5063505;28;20028;-69
2022/07/27 05:32:19;;;;;;;18.30;4.95;;;12.30;99.90;;;;;;5065002;28;20059;-69
2022/07/27 05:34:47;;;;;;;12.15;4.72;;;12.50;99.90;;;;;;5070554;28;20502;-68
2022/07/27 05:37:13;;;;;;;13.18;4.60;;;12.50;99.90;;;;;;5061928;28;20748;-68
2022/07/27 05:39:41;;;;;;;15.13;5.28;;;12.60;99.90;;;;;;5077339;28;20036;-68
2022/07/27 05:42:07;;;;;;;17.45;4.88;;;12.70;99.90;;;;;;5071673;28;20048;-67
2022/07/27 05:44:33;;;;;;;12.02;4.53;;;12.70;99.90;;;;;;5071923;28;20044;-67
2022/07/27 05:46:59;;;;;;;15.23;4.47;;;12.90;99.90;;;;;;5064397;28;20119;-68
2022/07/27 05:49:24;;;;;;;12.02;4.72;;;12.80;99.90;;;;;;5072203;28;20036;-68
2022/07/27 05:51:51;;;;;;;14.88;4.70;;;12.90;99.90;;;;;;5071379;28;20062;-68
2022/07/27 05:54:17;;;;;;;15.02;5.25;;;13.00;99.90;;;;;;5055607;28;22155;-69
2022/07/27 05:56:43;;;;;;;11.23;4.65;;;13.00;99.90;;;;;;5066999;28;20079;-68
2022/07/27 05:59:09;;;;;;;12.05;4.40;;;13.10;99.90;;;;;;5072009;28;20075;-68
2022/07/27 06:01:35;;;;;;;16.27;4.63;;;13.10;99.90;;;;;;5069860;28;20097;-68
2022/07/27 06:04:01;;;;;;;14.70;4.18;;;13.10;99.90;;;;;;5070948;28;20040;-68
2022/07/27 06:09:11;;;;;;;11.18;4.38;;;13.30;99.90;;;;;;5058620;28;20256;-69
2022/07/27 06:11:36;;;;;;;11.80;4.03;;;13.30;99.90;;;;;;5062194;28;20060;-68
2022/07/27 06:14:02;;;;;;;10.93;4.00;;;13.50;99.90;;;;;;5060722;28;20044;-68
2022/07/27 06:16:27;;;;;;;8.82;3.92;;;13.60;99.90;;;;;;5061745;28;20082;-69
2022/07/27 06:18:53;;;;;;;16.17;4.43;;;13.70;99.90;;;;;;5057928;28;20064;-69
2022/07/27 06:21:19;;;;;;;15.70;4.05;;;13.80;99.90;;;;;;5059266;28;20497;-69
2022/07/27 06:23:47;;;;;;;8.52;3.63;;;13.80;99.90;;;;;;5058295;28;20173;-69
2022/07/27 06:26:12;;;;;;;14.40;3.90;;;13.90;99.90;;;;;;5064437;28;20068;-68
2022/07/27 06:28:38;;;;;;;12.38;3.63;;;13.90;99.90;;;;;;5061836;28;20070;-68
2022/07/27 06:31:04;;;;;;;14.23;3.80;;;14.10;99.90;;;;;;5062157;28;20456;-68
2022/07/27 06:33:30;;;;;;;15.30;3.50;;;14.10;99.90;;;;;;5060013;28;20074;-68
2022/07/27 06:35:59;;;;;;;15.13;3.30;;;14.20;99.90;;;;;;5061930;28;20414;-68
2022/07/27 06:38:26;;;;;;;12.80;3.30;;;14.30;99.90;;;;;;5064138;28;20055;-68
2022/07/27 06:40:53;;;;;;;13.40;3.40;;;14.30;99.90;;;;;;5066338;28;20531;-69
2022/07/27 06:43:23;;;;;;;10.27;2.90;;;14.40;99.90;;;;;;5050150;28;20047;-69
2022/07/27 06:45:50;;;;;;;10.25;3.10;;;14.50;99.90;;;;;;5062393;28;20040;-69
2022/07/27 06:48:16;;;;;;;9.45;3.33;;;14.50;99.90;;;;;;5049096;28;20051;-68
2022/07/27 06:50:42;;;;;;;11.68;3.10;;;14.50;99.90;;;;;;5050655;28;20120;-69
2022/07/27 06:53:07;;;;;;;17.33;3.58;;;14.60;99.90;;;;;;5057117;28;20428;-67
2022/07/27 06:55:33;;;;;;;10.30;3.00;;;14.70;99.90;;;;;;5070022;28;20090;-65
2022/07/27 06:57:59;;;;;;;9.70;2.83;;;14.70;99.90;;;;;;5063239;28;20471;-68
2022/07/27 07:00:25;;;;;;;11.52;3.35;;;14.70;99.90;;;;;;5032472;28;20396;-69
2022/07/27 07:02:59;;;;;;;8.73;3.00;;;14.80;99.90;;;;;;5049685;28;20052;-66
2022/07/27 07:05:26;;;;;;;12.32;3.47;;;14.80;99.90;;;;;;5049946;28;20043;-69
2022/07/27 07:07:52;;;;;;;10.77;4.10;;;14.80;99.90;;;;;;5054487;28;20483;-69
2022/07/27 07:10:18;;;;;;;12.23;3.33;;;14.90;99.90;;;;;;5068651;28;20044;-69
2022/07/27 07:12:45;;;;;;;12.85;3.40;;;15.00;99.90;;;;;;5059344;28;20387;-69
2022/07/27 07:15:12;;;;;;;10.63;3.58;;;15.10;99.90;;;;;;5067572;28;20040;-69
2022/07/27 07:17:38;;;;;;;13.15;3.60;;;15.10;99.90;;;;;;5068000;28;20047;-69
2022/07/27 07:20:05;;;;;;;10.57;3.42;;;15.20;99.90;;;;;;5066903;28;20066;-70
2022/07/27 07:22:33;;;;;;;11.48;2.95;;;15.30;99.90;;;;;;5059192;28;20055;-69
2022/07/27 07:24:59;;;;;;;10.90;3.00;;;15.30;99.90;;;;;;5067957;28;20075;-69
2022/07/27 07:27:25;;;;;;;12.77;3.55;;;15.30;99.90;;;;;;5066900;28;20040;-70
2022/07/27 07:29:50;;;;;;;11.57;3.58;;;15.40;99.90;;;;;;5066055;28;20498;-69
2022/07/27 07:32:19;;;;;;;10.98;3.17;;;15.50;99.90;;;;;;5067833;28;20090;-69
2022/07/27 07:34:44;;;;;;;10.43;3.15;;;15.70;99.90;;;;;;5069363;28;20483;-69
2022/07/27 07:37:10;;;;;;;12.93;3.42;;;15.80;99.90;;;;;;5067668;28;20036;-69
2022/07/27 07:39:36;;;;;;;11.82;3.35;;;15.90;99.90;;;;;;5072437;28;20569;-68
2022/07/27 07:42:01;;;;;;;12.13;3.78;;;15.90;99.90;;;;;;5072825;28;20467;-69
2022/07/27 07:44:27;;;;;;;10.95;3.30;;;16.10;99.90;;;;;;5069992;28;20067;-68
2022/07/27 07:46:53;;;;;;;14.60;3.40;;;16.30;99.90;;;;;;5054793;28;20084;-69
2022/07/27 07:49:24;;;;;;;10.23;2.80;;;16.50;99.90;;;;;;5078647;28;20051;-68
2022/07/27 07:51:50;;;;;;;11.98;2.85;;;16.70;99.90;;;;;;5072163;28;20080;-68
2022/07/27 07:54:15;;;;;;;14.45;2.92;;;16.80;99.90;;;;;;5072588;28;20068;-68
2022/07/27 07:56:41;;;;;;;12.15;3.10;;;16.90;99.90;;;;;;5070814;28;20048;-70
2022/07/27 07:59:06;;;;;;;11.18;2.63;;;17.10;99.90;;;;;;5072465;28;20132;-69
2022/07/27 08:01:32;;;;;;;6.95;2.50;;;17.20;99.90;;;;;;5081005;28;20040;-69
2022/07/27 08:03:58;;;;;;;11.45;2.72;;;17.30;99.90;;;;;;5046768;28;20136;-69
2022/07/27 08:06:23;;;;;;;13.77;2.35;;;17.40;99.90;;;;;;5061860;28;20185;-70
2022/07/27 08:08:49;;;;;;;8.23;2.45;;;17.50;99.90;;;;;;5072455;28;20057;-70
2022/07/27 08:11:15;;;;;;;8.80;2.40;;;17.60;99.90;;;;;;5068417;28;20487;-69
2022/07/27 08:13:40;;;;;;;8.00;1.90;;;17.60;99.90;;;;;;5052356;28;20041;-69
2022/07/27 08:16:06;;;;;;;11.95;2.63;;;17.60;99.90;;;;;;5054870;28;20618;-70
2022/07/27 08:18:31;;;;;;;10.27;2.60;;;17.70;99.90;;;;;;5075274;28;20052;-67
2022/07/27 08:20:57;;;;;;;12.48;2.30;;;17.80;99.90;;;;;;5064198;28;20041;-70
2022/07/27 08:23:23;;;;;;;12.63;2.35;;;17.80;99.90;;;;;;5063019;28;20047;-69
2022/07/27 08:25:49;;;;;;;8.90;2.28;;;17.80;99.90;;;;;;5072038;28;20106;-69
2022/07/27 08:28:14;;;;;;;12.45;2.00;;;17.90;99.90;;;;;;5071132;28;20202;-69
2022/07/27 08:30:40;;;;;;;11.98;2.30;;;18.10;99.90;;;;;;5069883;28;20045;-68
2022/07/27 08:33:07;;;;;;;8.82;1.90;;;18.20;99.90;;;;;;5056485;28;20556;-66
2022/07/27 08:35:34;;;;;;;12.43;2.40;;;18.10;99.90;;;;;;5036260;28;20048;-67
2022/07/27 08:38:01;;;;;;;10.05;2.10;;;18.00;99.90;;;;;;5060621;28;20381;-67
2022/07/27 08:40:27;;;;;;;6.40;1.52;;;17.80;99.90;;;;;;5068369;28;20033;-68
2022/07/27 08:42:55;;;;;;;9.68;1.80;;;17.70;99.90;;;;;;5057127;28;20041;-67
2022/07/27 08:45:23;;;;;;;5.68;1.83;;;17.80;99.90;;;;;;5038612;28;20460;-67
2022/07/27 08:47:49;;;;;;;10.98;1.85;;;18.00;99.90;;;;;;5056028;28;20037;-66
2022/07/27 08:50:23;;;;;;;9.88;2.00;;;18.00;99.90;;;;;;5060111;28;20036;-65
2022/07/27 08:52:54;;;;;;;9.07;2.20;;;18.00;99.90;;;;;;5058009;28;20457;-64
2022/07/27 08:55:21;;;;;;;12.90;2.10;;;17.80;99.90;;;;;;5063031;28;20040;-67
2022/07/27 08:57:46;;;;;;;10.07;2.00;;;17.60;99.90;;;;;;5066603;28;20359;-67
2022/07/27 09:00:12;;;;;;;8.95;2.00;;;17.60;99.90;;;;;;5063916;28;20044;-67
2022/07/27 09:02:39;;;;;;;7.50;1.70;;;17.60;99.90;;;;;;5057377;28;20046;-67
2022/07/27 09:05:06;;;;;;;8.35;2.00;;;17.80;99.90;;;;;;5064486;28;20052;-68
2022/07/27 09:07:32;;;;;;;8.73;2.10;;;18.10;99.90;;;;;;5071810;28;20515;-66
2022/07/27 09:09:58;;;;;;;7.40;1.80;;;18.30;99.90;;;;;;5065173;28;20126;-67
2022/07/27 09:12:28;;;;;;;6.05;1.77;;;18.40;99.90;;;;;;5057787;28;20419;-66
2022/07/27 09:15:12;;;;;;;6.38;1.75;;;18.20;99.90;;;;;;5069347;28;20037;-68
2022/07/27 09:17:41;;;;;;;4.63;1.45;;;18.10;99.90;;;;;;5067088;28;20047;-67
2022/07/27 09:20:10;;;;;;;5.63;1.67;;;18.30;99.90;;;;;;5053212;28;20043;-67
2022/07/27 09:22:51;;;;;;;6.28;1.73;;;18.50;99.90;;;;;;5063868;28;20383;-69
2022/07/27 09:25:20;;;;;;;15.52;1.95;;;18.50;99.90;;;;;;5070872;28;20040;-66
2022/07/27 09:31:27;;;;;;;6.10;1.70;;;18.70;99.90;;;;;;5071719;28;20161;-67
2022/07/27 09:33:55;;;;;;;6.47;1.80;;;18.90;99.90;;;;;;5071123;28;20123;-69
2022/07/27 09:36:22;;;;;;;4.90;1.75;;;19.20;99.90;;;;;;5066042;28;20044;-69
2022/07/27 09:39:05;;;;;;;6.88;1.50;;;19.20;99.90;;;;;;5052332;28;20078;-67
2022/07/27 09:41:43;;;;;;;4.50;1.85;;;19.10;99.90;;;;;;5050802;28;20049;-66
2022/07/27 09:44:10;;;;;;;7.18;1.85;;;18.80;99.90;;;;;;5050910;28;20441;-67
2022/07/27 09:46:42;;;;;;;12.98;2.38;;;18.60;99.90;;;;;;5051170;28;20124;-67
2022/07/27 09:49:33;;;;;;;8.23;1.95;;;18.20;99.90;;;;;;5055002;28;20083;-68
2022/07/27 09:52:02;;;;;;;4.60;1.48;;;17.90;99.90;;;;;;5072318;28;20044;-66
2022/07/27 09:54:42;;;;;;;8.75;2.00;;;17.70;99.90;;;;;;5067566;28;20048;-66
2022/07/27 09:57:08;;;;;;;7.35;1.98;;;17.50;99.90;;;;;;5079118;28;20063;-67
2022/07/27 09:59:34;;;;;;;7.43;2.28;;;17.30;99.90;;;;;;5058596;28;20492;-66
2022/07/27 10:02:00;;;;;;;11.43;2.38;;;17.20;99.90;;;;;;5061034;28;20094;-67
2022/07/27 10:04:26;;;;;;;6.93;2.13;;;17.20;99.90;;;;;;5065543;28;20039;-67
2022/07/27 10:06:52;;;;;;;8.77;2.22;;;17.20;99.90;;;;;;5069486;28;20044;-68
2022/07/27 10:09:19;;;;;;;9.63;2.50;;;17.30;99.90;;;;;;5062332;28;20086;-67
2022/07/27 10:11:47;;;;;;;7.65;2.10;;;17.40;99.90;;;;;;5060705;28;20040;-68
2022/07/27 10:14:13;;;;;;;9.77;2.80;;;17.40;99.90;;;;;;5070152;28;20036;-67
2022/07/27 10:16:40;;;;;;;9.30;2.50;;;17.40;99.90;;;;;;5069130;28;20033;-68
2022/07/27 10:19:16;;;;;;;8.15;2.20;;;17.40;99.90;;;;;;5068212;28;20059;-67
2022/07/27 10:21:44;;;;;;;7.13;2.13;;;17.60;99.90;;;;;;5057720;28;20518;-67
2022/07/27 10:24:25;;;;;;;7.63;2.10;;;17.70;99.90;;;;;;5071735;28;20127;-67
2022/07/27 10:26:51;;;;;;;9.98;2.28;;;18.10;99.90;;;;;;5050726;28;20063;-67
2022/07/27 10:29:19;;;;;;;7.03;1.60;;;18.50;99.90;;;;;;5049746;28;20053;-68
2022/07/27 10:32:07;;;;;;;7.65;1.85;;;18.70;99.90;;;;;;5050464;28;20522;-66
2022/07/27 10:34:32;;;;;;;9.10;2.45;;;18.70;99.90;;;;;;5049875;28;20076;-69
2022/07/27 10:37:13;;;;;;;11.88;2.30;;;18.60;99.90;;;;;;5032966;28;20069;-68
2022/07/27 10:39:44;;;;;;;7.18;1.90;;;18.50;99.90;;;;;;5050129;28;20136;-68
2022/07/27 10:42:39;;;;;;;6.85;2.22;;;18.60;99.90;;;;;;5066697;28;20052;-66
2022/07/27 10:45:11;;;;;;;7.80;1.85;;;18.70;99.90;;;;;;5060744;28;20075;-66
2022/07/27 10:47:44;;;;;;;5.97;2.03;;;18.70;99.90;;;;;;5080973;28;20058;-69
2022/07/27 10:50:16;;;;;;;4.70;1.98;;;18.70;99.90;;;;;;5089864;28;20044;-69
2022/07/27 10:52:59;;;;;;;6.45;2.00;;;18.80;99.90;;;;;;5089973;28;20044;-68
2022/07/27 10:55:32;;;;;;;5.10;1.75;;;18.80;99.90;;;;;;5084659;28;20055;-67
2022/07/27 10:58:13;;;;;;;4.57;1.50;;;18.80;99.90;;;;;;5064540;28;20041;-67
2022/07/27 11:00:48;;;;;;;9.18;2.03;;;19.00;99.90;;;;;;5069475;28;20048;-68
2022/07/27 11:03:21;;;;;;;8.45;2.03;;;18.90;99.90;;;;;;5069687;28;21326;-66
2022/07/27 11:06:18;;;;;;;8.38;1.60;;;18.90;99.90;;;;;;5070507;28;20044;-68
2022/07/27 11:08:45;;;;;;;7.15;1.73;;;18.90;99.90;;;;;;5068699;28;20057;-65
2022/07/27 11:11:17;;;;;;;6.15;1.73;;;19.00;99.90;;;;;;5066534;28;20480;-67
2022/07/27 11:13:43;;;;;;;7.80;1.60;;;19.00;99.90;;;;;;5068743;28;20029;-68
2022/07/27 11:16:10;;;;;;;5.40;1.55;;;19.10;99.90;;;;;;5077021;28;20286;-67
2022/07/27 11:18:39;;;;;;;6.68;1.67;;;19.20;99.90;;;;;;5077279;28;20364;-68
2022/07/27 11:21:22;;;;;;;10.93;2.28;;;19.20;99.90;;;;;;5074726;28;20036;-67
2022/07/27 11:23:55;;;;;;;7.80;1.60;;;19.30;99.90;;;;;;5065435;28;20052;-68
2022/07/27 11:26:23;;;;;;;9.25;1.92;;;19.40;99.90;;;;;;5063684;28;20036;-68
2022/07/27 11:28:50;;;;;;;7.32;2.10;;;19.40;99.90;;;;;;5069425;28;20125;-67
2022/07/27 11:31:16;;;;;;;7.40;1.80;;;19.50;99.90;;;;;;5068079;28;20037;-68
2022/07/27 11:33:49;;;;;;;9.52;2.20;;;19.60;99.90;;;;;;5065325;28;20040;-68
2022/07/27 11:36:14;;;;;;;10.13;2.00;;;19.70;99.90;;;;;;5060917;28;20071;-68
2022/07/27 11:38:45;;;;;;;9.18;2.30;;;19.80;99.90;;;;;;5066620;28;20048;-67
2022/07/27 11:41:27;;;;;;;9.85;1.80;;;19.60;99.90;;;;;;5066504;28;20043;-67
2022/07/27 11:43:54;;;;;;;7.57;1.90;;;19.40;99.90;;;;;;5063793;28;20037;-69
2022/07/27 11:46:26;;;;;;;6.53;1.90;;;19.20;99.90;;;;;;5059912;28;20087;-67
2022/07/27 11:49:05;;;;;;;6.85;1.73;;;19.30;99.90;;;;;;5065010;28;20067;-69
2022/07/27 11:51:32;;;;;;;6.15;1.73;;;19.50;99.90;;;;;;5067208;28;20038;-67
2022/07/27 11:54:07;;;;;;;7.07;1.98;;;19.50;99.90;;;;;;5070272;28;20437;-67
2022/07/27 11:56:35;;;;;;;4.18;1.60;;;19.60;99.90;;;;;;5051519;28;20409;-68
2022/07/27 11:59:10;;;;;;;4.43;1.55;;;19.80;99.90;;;;;;5066614;28;20124;-67
2022/07/27 12:01:38;;;;;;;2.88;1.73;;;19.70;99.90;;;;;;5073987;28;20043;-67
2022/07/27 12:04:13;;;;;;;7.63;2.10;;;19.70;99.90;;;;;;5059462;28;20128;-68
2022/07/27 12:06:41;;;;;;;6.10;1.73;;;19.60;99.90;;;;;;5063080;28;20551;-68
2022/07/27 12:09:09;;;;;;;6.97;1.65;;;19.50;99.90;;;;;;5065003;28;20044;-68
2022/07/27 12:11:55;;;;;;;4.97;1.95;;;19.30;99.90;;;;;;5075393;28;20044;-68
2022/07/27 12:14:36;;;;;;;4.93;1.67;;;19.10;99.90;;;;;;5064073;28;20395;-67
2022/07/27 12:17:30;;;;;;;10.10;2.42;;;19.00;99.90;;;;;;5070904;28;20037;-67
2022/07/27 12:19:56;;;;;;;5.10;1.50;;;18.70;99.90;;;;;;5056530;28;20045;-66
2022/07/27 12:22:29;;;;;;;2.75;1.25;;;18.40;99.90;;;;;;5063429;28;20040;-67
2022/07/27 12:24:56;;;;;;;3.30;1.58;;;18.20;99.90;;;;;;5050500;28;20076;-68
2022/07/27 12:27:22;;;;;;;7.90;1.88;;;18.00;99.90;;;;;;5071052;28;20132;-68
2022/07/27 12:29:56;;;;;;;6.90;1.38;;;17.90;99.90;;;;;;5072996;28;20040;-68
2022/07/27 12:32:22;;;;;;;6.03;1.70;;;17.90;99.90;;;;;;5068910;28;20120;-68
2022/07/27 12:34:48;;;;;;;8.73;2.05;;;18.00;99.90;;;;;;5067150;28;20434;-67
2022/07/27 12:37:13;;;;;;;9.82;1.70;;;18.00;99.90;;;;;;5071276;28;20041;-68
2022/07/27 12:39:44;;;;;;;6.10;1.85;;;18.10;99.90;;;;;;5063703;28;20064;-68
2022/07/27 12:42:11;;;;;;;6.03;1.65;;;18.20;99.90;;;;;;5071936;28;20083;-69
2022/07/27 12:44:39;;;;;;;8.07;1.75;;;18.20;99.90;;;;;;5071276;28;20040;-69
2022/07/27 12:50:05;;;;;;;8.88;2.17;;;18.40;99.90;;;;;;5088292;28;20212;-68
2022/07/27 12:52:33;;;;;;;7.03;1.80;;;18.50;99.90;;;;;;5071361;28;20464;-68
2022/07/27 12:54:59;;;;;;;9.27;2.13;;;18.70;99.90;;;;;;5072104;28;20380;-67